createdAt,value
2023-02-27T00:01:16.329Z,0.73
2023-02-27T00:04:19.030Z,2.30
2023-02-27T00:07:26.115Z,0.80
2023-02-27T00:10:30.139Z,0.88
2023-02-27T00:13:32.608Z,1.05
2023-02-27T00:16:35.177Z,0.80
2023-02-27T00:19:37.730Z,0.77
2023-02-27T00:22:40.966Z,0.90
2023-02-27T00:25:44.890Z,0.73
2023-02-27T00:28:47.472Z,0.63
2023-02-27T00:31:50.761Z,0.93
2023-02-27T00:34:53.790Z,0.70
2023-02-27T00:37:56.349Z,0.60
2023-02-27T00:41:00.297Z,0.80
2023-02-27T00:44:03.113Z,0.73
2023-02-27T00:47:05.566Z,0.73
2023-02-27T00:50:10.202Z,0.93
2023-02-27T00:53:12.725Z,0.88
2023-02-27T00:56:16.593Z,0.90
2023-02-27T00:59:19.391Z,1.00
2023-02-27T01:02:22.331Z,0.73
2023-02-27T01:05:24.938Z,0.70
2023-02-27T01:08:27.446Z,1.00
2023-02-27T01:11:31.611Z,0.70
2023-02-27T01:14:36.412Z,0.80
2023-02-27T01:17:38.969Z,0.90
2023-02-27T01:20:41.518Z,0.60
2023-02-27T01:23:44.102Z,0.70
2023-02-27T01:26:48.179Z,0.80
2023-02-27T01:29:50.718Z,0.80
2023-02-27T01:32:53.214Z,0.80
2023-02-27T01:35:55.834Z,0.70
2023-02-27T01:38:58.331Z,1.10
2023-02-27T01:42:02.702Z,0.85
2023-02-27T01:45:27.928Z,0.80
2023-02-27T01:48:33.543Z,1.00
2023-02-27T01:51:38.510Z,1.10
2023-02-27T01:54:42.447Z,1.05
2023-02-27T01:57:47.709Z,0.70
2023-02-27T02:00:50.529Z,0.90
2023-02-27T02:03:58.772Z,0.88
2023-02-27T02:07:02.945Z,0.88
2023-02-27T02:10:06.876Z,0.73
2023-02-27T02:13:10.992Z,0.80
2023-02-27T02:16:23.242Z,0.73
2023-02-27T02:19:55.421Z,0.60
2023-02-27T02:23:22.831Z,0.60
2023-02-27T02:26:35.694Z,0.90
2023-02-27T02:30:26.064Z,0.88
2023-02-27T02:34:02.105Z,0.88
2023-02-27T02:37:26.409Z,0.70
2023-02-27T02:40:36.767Z,0.70
2023-02-27T02:43:44.175Z,0.80
2023-02-27T02:46:52.470Z,1.35
2023-02-27T02:49:57.529Z,1.10
2023-02-27T02:53:06.483Z,0.60
2023-02-27T02:56:16.698Z,0.80
2023-02-27T02:59:26.896Z,0.75
2023-02-27T03:02:33.130Z,1.23
2023-02-27T03:05:38.200Z,0.70
2023-02-27T03:08:43.469Z,1.05
2023-02-27T03:11:49.195Z,0.60
2023-02-27T03:14:56.505Z,1.00
2023-02-27T03:18:03.560Z,0.80
2023-02-27T03:21:10.651Z,1.13
2023-02-27T03:24:16.921Z,0.82
2023-02-27T03:27:21.987Z,1.35
2023-02-27T03:30:29.587Z,0.90
2023-02-27T03:33:36.413Z,1.15
2023-02-27T03:36:45.010Z,0.80
2023-02-27T03:39:49.559Z,1.08
2023-02-27T03:43:01.118Z,1.08
2023-02-27T03:46:28.183Z,0.98
2023-02-27T03:49:31.209Z,1.45
2023-02-27T03:52:33.798Z,1.10
2023-02-27T03:55:39.346Z,1.00
2023-02-27T03:58:43.567Z,0.82
2023-02-27T04:01:46.219Z,1.00
2023-02-27T04:04:49.268Z,0.90
2023-02-27T04:08:32.184Z,1.15
2023-02-27T04:11:37.134Z,1.10
2023-02-27T04:14:50.705Z,0.95
2023-02-27T04:17:57.210Z,1.10
2023-02-27T04:21:03.893Z,0.93
2023-02-27T04:24:15.885Z,1.52
2023-02-27T04:30:26.567Z,1.00
2023-02-27T04:33:35.367Z,1.20
2023-02-27T04:36:42.130Z,1.20
2023-02-27T04:39:51.803Z,1.05
2023-02-27T04:42:56.085Z,1.00
2023-02-27T04:46:00.971Z,1.20
2023-02-27T04:49:06.444Z,1.25
2023-02-27T04:52:12.514Z,1.20
2023-02-27T04:55:17.698Z,1.05
2023-02-27T04:58:25.240Z,1.20
2023-02-27T05:01:34.562Z,1.10
2023-02-27T05:04:38.844Z,1.20
2023-02-27T05:07:44.953Z,1.33
2023-02-27T05:10:51.300Z,1.30
2023-02-27T05:13:55.575Z,1.20
2023-02-27T05:17:04.208Z,1.55
2023-02-27T05:20:07.639Z,1.50
2023-02-27T05:23:36.091Z,1.50
2023-02-27T05:26:49.999Z,1.20
2023-02-27T05:29:53.973Z,1.63
2023-02-27T05:33:01.825Z,1.55
2023-02-27T05:36:07.911Z,1.75
2023-02-27T05:39:11.451Z,1.60
2023-02-27T05:42:17.071Z,1.42
2023-02-27T05:45:22.893Z,1.27
2023-02-27T05:48:30.418Z,1.10
2023-02-27T05:51:36.143Z,1.40
2023-02-27T05:54:41.784Z,1.55
2023-02-27T05:57:45.970Z,1.33
2023-02-27T06:00:51.873Z,1.85
2023-02-27T06:03:55.536Z,1.67
2023-02-27T06:06:58.245Z,1.98
2023-02-27T06:10:01.669Z,2.15
2023-02-27T06:13:04.251Z,2.78
2023-02-27T06:16:09.833Z,1.95
2023-02-27T06:19:13.702Z,3.17
2023-02-27T06:22:16.176Z,3.33
2023-02-27T06:25:18.964Z,2.92
2023-02-27T06:28:21.299Z,2.55
2023-02-27T06:31:23.602Z,2.25
2023-02-27T06:34:27.629Z,2.30
2023-02-27T06:37:29.931Z,2.40
2023-02-27T06:40:32.535Z,2.08
2023-02-27T06:43:36.612Z,2.33
2023-02-27T06:46:39.058Z,1.80
2023-02-27T06:49:42.813Z,1.77
2023-02-27T06:52:45.096Z,1.55
2023-02-27T06:55:47.363Z,2.17
2023-02-27T06:58:49.793Z,1.80
2023-02-27T07:01:52.127Z,1.40
2023-02-27T07:04:55.853Z,1.42
2023-02-27T07:07:58.730Z,1.20
2023-02-27T07:11:01.102Z,1.55
2023-02-27T07:14:03.412Z,1.23
2023-02-27T07:17:05.780Z,1.15
2023-02-27T07:20:11.574Z,0.93
2023-02-27T07:23:14.126Z,0.98
2023-02-27T07:26:16.489Z,1.08
2023-02-27T07:29:18.869Z,0.85
2023-02-27T07:32:21.226Z,0.80
2023-02-27T07:35:25.026Z,1.00
2023-02-27T07:38:28.899Z,0.80
2023-02-27T07:41:31.378Z,1.10
2023-02-27T07:44:36.630Z,1.00
2023-02-27T07:47:38.967Z,1.20
2023-02-27T07:50:42.604Z,0.75
2023-02-27T07:53:45.032Z,0.85
2023-02-27T07:56:47.269Z,0.80
2023-02-27T07:59:49.759Z,0.88
2023-02-27T08:02:52.159Z,1.45
2023-02-27T08:05:55.948Z,1.10
2023-02-27T08:08:58.420Z,0.80
2023-02-27T08:12:02.992Z,0.80
2023-02-27T08:15:07.162Z,0.82
2023-02-27T08:18:09.749Z,0.90
2023-02-27T08:21:13.898Z,0.68
2023-02-27T08:24:16.422Z,0.60
2023-02-27T08:27:18.921Z,0.65
2023-02-27T08:30:21.679Z,0.73
2023-02-27T08:33:24.494Z,0.73
2023-02-27T08:36:28.565Z,0.73
2023-02-27T08:39:31.168Z,0.90
2023-02-27T08:42:33.671Z,0.70
2023-02-27T08:45:36.173Z,0.60
2023-02-27T08:48:38.579Z,0.60
2023-02-27T08:51:42.360Z,0.70
2023-02-27T08:54:44.965Z,0.43
2023-02-27T08:57:47.310Z,0.50
2023-02-27T09:00:49.653Z,0.50
2023-02-27T09:03:51.974Z,0.60
2023-02-27T09:06:55.779Z,0.57
2023-02-27T09:09:58.111Z,0.47
2023-02-27T09:13:00.498Z,0.40
2023-02-27T09:16:02.854Z,0.40
2023-02-27T09:19:05.658Z,0.50
2023-02-27T09:22:09.365Z,0.50
2023-02-27T09:25:11.780Z,0.60
2023-02-27T09:28:14.237Z,0.60
2023-02-27T09:31:17.631Z,0.50
2023-02-27T09:34:19.997Z,0.60
2023-02-27T09:37:25.036Z,0.50
2023-02-27T09:40:29.132Z,0.70
2023-02-27T09:43:37.317Z,0.57
2023-02-27T09:46:39.824Z,0.60
2023-02-27T09:49:54.932Z,0.57
2023-02-27T09:52:59.343Z,0.70
2023-02-27T09:56:05.765Z,0.55
2023-02-27T09:59:14.278Z,0.50
2023-02-27T10:02:26.737Z,0.50
2023-02-27T10:05:36.557Z,0.50
2023-02-27T10:08:45.474Z,0.60
2023-02-27T10:12:08.180Z,0.40
2023-02-27T10:15:12.899Z,0.60
2023-02-27T10:18:26.844Z,0.47
2023-02-27T10:21:33.817Z,0.60
2023-02-27T10:24:41.201Z,0.50
2023-02-27T10:27:46.642Z,0.40
2023-02-27T10:30:50.804Z,0.38
2023-02-27T10:33:53.225Z,0.50
2023-02-27T10:36:55.676Z,0.20
2023-02-27T10:40:00.915Z,0.20
2023-02-27T10:43:07.219Z,0.10
2023-02-27T10:46:14.144Z,0.10
2023-02-27T10:49:19.295Z,0.20
2023-02-27T10:52:21.787Z,0.20
2023-02-27T10:55:27.635Z,0.10
2023-02-27T10:58:34.407Z,0.10
2023-02-27T11:01:44.532Z,0.10
2023-02-27T11:04:49.256Z,0.10
2023-02-27T11:07:52.041Z,0.10
2023-02-27T11:10:59.066Z,0.10
2023-02-27T11:14:20.164Z,0.10
2023-02-27T11:17:28.796Z,0.10
2023-02-27T11:20:33.488Z,0.20
2023-02-27T11:23:35.952Z,0.20
2023-02-27T11:26:41.440Z,0.20
2023-02-27T11:29:56.288Z,0.40
2023-02-27T11:33:00.122Z,0.17
2023-02-27T11:36:03.464Z,0.20
2023-02-27T11:39:07.334Z,0.30
2023-02-27T11:42:17.451Z,0.30
2023-02-27T11:46:05.117Z,0.30
2023-02-27T11:48:53.511Z,0.40
2023-02-27T11:51:59.747Z,0.10
2023-02-27T11:55:04.739Z,0.30
2023-02-27T11:58:13.075Z,0.45
2023-02-27T12:01:18.957Z,0.30
2023-02-27T12:04:24.813Z,0.40
2023-02-27T12:07:30.195Z,0.38
2023-02-27T12:10:35.694Z,0.63
2023-02-27T12:13:41.846Z,0.40
2023-02-27T12:16:46.550Z,0.45
2023-02-27T12:19:58.652Z,0.30
2023-02-27T12:26:07.395Z,0.45
2023-02-27T12:29:17.669Z,0.50
2023-02-27T12:32:23.808Z,0.20
2023-02-27T12:35:28.427Z,0.50
2023-02-27T12:38:30.913Z,0.68
2023-02-27T12:41:43.991Z,0.40
2023-02-27T12:45:21.989Z,0.40
2023-02-27T12:48:37.363Z,0.30
2023-02-27T12:51:44.367Z,0.38
2023-02-27T12:54:54.285Z,0.45
2023-02-27T12:58:18.261Z,0.30
2023-02-27T13:01:32.063Z,0.30
2023-02-27T13:04:43.428Z,0.30
2023-02-27T13:07:52.721Z,0.40
2023-02-27T13:10:59.350Z,0.32
2023-02-27T13:14:04.254Z,0.63
2023-02-27T13:17:16.689Z,0.30
2023-02-27T13:20:30.654Z,0.30
2023-02-27T13:23:37.270Z,0.30
2023-02-27T13:26:42.073Z,0.20
2023-02-27T13:29:47.676Z,0.30
2023-02-27T13:32:55.245Z,0.30
2023-02-27T13:36:05.584Z,0.20
2023-02-27T13:39:53.060Z,0.30
2023-02-27T13:43:02.432Z,0.20
2023-02-27T13:46:21.656Z,0.45
2023-02-27T13:49:29.650Z,0.22
2023-02-27T13:52:35.094Z,0.38
2023-02-27T13:55:37.718Z,0.30
2023-02-27T13:58:40.100Z,0.20
2023-02-27T14:01:51.139Z,0.32
2023-02-27T14:04:55.438Z,0.28
2023-02-27T14:08:04.437Z,0.20
2023-02-27T14:11:16.890Z,0.30
2023-02-27T14:14:41.639Z,0.30
2023-02-27T14:17:45.519Z,0.30
2023-02-27T14:20:49.965Z,0.30
2023-02-27T14:23:54.526Z,0.10
2023-02-27T14:26:57.290Z,0.13
2023-02-27T14:30:04.044Z,0.10
2023-02-27T14:33:21.663Z,0.30
2023-02-27T14:36:30.851Z,0.20
2023-02-27T14:39:36.522Z,0.20
2023-02-27T14:42:46.464Z,0.30
2023-02-27T14:45:49.335Z,0.35
2023-02-27T14:48:56.460Z,0.32
2023-02-27T14:52:11.107Z,0.20
2023-02-27T14:55:18.023Z,0.40
2023-02-27T14:58:22.174Z,0.30
2023-02-27T15:01:25.932Z,0.30
2023-02-27T15:04:29.486Z,0.40
2023-02-27T15:07:34.231Z,0.43
2023-02-27T15:10:42.441Z,0.25
2023-02-27T15:13:45.145Z,0.40
2023-02-27T15:16:47.655Z,0.30
2023-02-27T15:19:52.474Z,0.20
2023-02-27T15:22:55.592Z,0.32
2023-02-27T15:25:59.791Z,0.40
2023-02-27T15:29:03.554Z,0.98
2023-02-27T15:32:06.979Z,0.45
2023-02-27T15:35:16.409Z,0.40
2023-02-27T15:38:26.970Z,0.38
2023-02-27T15:41:30.787Z,0.50
2023-02-27T15:44:36.688Z,0.70
2023-02-27T15:47:41.777Z,0.40
2023-02-27T15:50:53.775Z,0.40
2023-02-27T15:54:00.120Z,0.50
2023-02-27T15:57:04.871Z,0.35
2023-02-27T16:00:09.369Z,0.35
2023-02-27T16:03:17.850Z,0.40
2023-02-27T16:06:23.165Z,0.30
2023-02-27T16:09:30.171Z,0.38
2023-02-27T16:12:36.732Z,0.40
2023-02-27T16:15:40.276Z,0.50
2023-02-27T16:18:47.090Z,0.40
2023-02-27T16:22:07.166Z,0.45
2023-02-27T16:25:10.360Z,0.30
2023-02-27T16:28:14.930Z,0.40
2023-02-27T16:31:23.977Z,0.30
2023-02-27T16:34:42.645Z,0.43
2023-02-27T16:37:48.081Z,0.30
2023-02-27T16:40:50.729Z,0.30
2023-02-27T16:43:54.719Z,0.50
2023-02-27T16:46:58.874Z,0.40
2023-02-27T16:50:01.348Z,0.43
2023-02-27T16:53:04.037Z,0.40
2023-02-27T16:56:06.556Z,0.63
2023-02-27T16:59:26.907Z,0.60
2023-02-27T17:02:29.323Z,0.52
2023-02-27T17:05:31.697Z,0.40
2023-02-27T17:08:34.338Z,0.47
2023-02-27T17:11:36.653Z,0.50
2023-02-27T17:14:40.308Z,0.35
2023-02-27T17:17:42.980Z,0.50
2023-02-27T17:20:45.324Z,0.75
2023-02-27T17:23:47.645Z,0.60
2023-02-27T17:26:52.176Z,0.63
2023-02-27T17:29:56.176Z,0.50
2023-02-27T17:33:01.114Z,0.65
2023-02-27T17:36:06.570Z,0.40
2023-02-27T17:39:11.441Z,0.70
2023-02-27T17:42:16.636Z,0.52
2023-02-27T17:45:21.242Z,0.57
2023-02-27T17:48:23.549Z,0.43
2023-02-27T17:51:26.663Z,0.50
2023-02-27T17:54:29.091Z,0.40
2023-02-27T17:57:31.542Z,0.50
2023-02-27T18:00:35.561Z,0.52
2023-02-27T18:03:38.722Z,0.50
2023-02-27T18:06:41.015Z,0.50
2023-02-27T18:09:45.835Z,0.70
2023-02-27T18:12:48.186Z,0.70
2023-02-27T18:15:52.130Z,1.00
2023-02-27T18:18:54.415Z,0.80
2023-02-27T18:21:56.834Z,0.77
2023-02-27T18:24:59.264Z,0.90
2023-02-27T18:28:01.845Z,0.70
2023-02-27T18:31:05.585Z,0.80
2023-02-27T18:34:08.142Z,0.80
2023-02-27T18:37:10.952Z,0.73
2023-02-27T18:40:15.180Z,0.68
2023-02-27T18:43:17.540Z,0.60
2023-02-27T18:46:21.383Z,0.70
2023-02-27T18:49:23.738Z,0.75
2023-02-27T18:52:26.089Z,0.90
2023-02-27T18:55:28.578Z,0.90
2023-02-27T18:58:31.386Z,0.85
2023-02-27T19:01:36.878Z,1.05
2023-02-27T19:04:39.195Z,0.63
2023-02-27T19:07:41.683Z,0.70
2023-02-27T19:10:44.064Z,0.80
2023-02-27T19:13:47.481Z,0.82
2023-02-27T19:16:51.203Z,1.00
2023-02-27T19:19:55.568Z,0.80
2023-02-27T19:22:58.082Z,0.80
2023-02-27T19:26:00.655Z,0.90
2023-02-27T19:29:03.861Z,1.02
2023-02-27T19:32:08.367Z,1.10
2023-02-27T19:35:14.223Z,0.88
2023-02-27T19:38:16.646Z,1.63
2023-02-27T19:41:19.845Z,1.20
2023-02-27T19:44:22.373Z,1.08
2023-02-27T19:47:26.088Z,1.63
2023-02-27T19:50:30.213Z,1.27
2023-02-27T19:53:33.840Z,1.33
2023-02-27T19:56:37.120Z,1.00
2023-02-27T19:59:39.506Z,1.17
2023-02-27T20:02:43.355Z,1.27
2023-02-27T20:05:45.738Z,1.35
2023-02-27T20:08:48.248Z,1.45
2023-02-27T20:11:54.029Z,1.23
2023-02-27T20:14:56.278Z,1.27
2023-02-27T20:18:00.696Z,1.50
2023-02-27T20:21:04.989Z,1.45
2023-02-27T20:24:10.326Z,1.38
2023-02-27T20:27:12.649Z,1.38
2023-02-27T20:30:15.390Z,1.58
2023-02-27T20:33:19.123Z,1.45
2023-02-27T20:36:21.451Z,1.48
2023-02-27T20:39:24.461Z,1.92
2023-02-27T20:42:26.725Z,1.13
2023-02-27T20:45:29.212Z,1.10
2023-02-27T20:48:33.051Z,1.65
2023-02-27T20:51:37.371Z,1.20
2023-02-27T20:54:39.696Z,1.88
2023-02-27T20:57:41.990Z,1.10
2023-02-27T21:00:44.307Z,1.20
2023-02-27T21:03:50.975Z,1.55
2023-02-27T21:06:54.688Z,1.05
2023-02-27T21:09:57.023Z,1.10
2023-02-27T21:12:59.342Z,1.42
2023-02-27T21:16:03.201Z,1.55
2023-02-27T21:19:07.367Z,1.20
2023-02-27T21:22:11.168Z,1.20
2023-02-27T21:25:14.081Z,0.90
2023-02-27T21:28:16.413Z,0.90
2023-02-27T21:31:20.577Z,0.80
2023-02-27T21:34:26.138Z,0.70
2023-02-27T21:37:28.545Z,0.77
2023-02-27T21:40:30.887Z,0.90
2023-02-27T21:43:33.955Z,0.80
2023-02-27T21:46:36.233Z,1.00
2023-02-27T21:49:40.090Z,0.77
2023-02-27T21:52:42.669Z,1.00
2023-02-27T21:55:44.946Z,0.80
2023-02-27T21:58:47.253Z,1.23
2023-02-27T22:01:49.612Z,0.80
2023-02-27T22:04:53.330Z,1.00
2023-02-27T22:07:55.640Z,0.70
2023-02-27T22:10:58.362Z,1.00
2023-02-27T22:14:00.984Z,1.20
2023-02-27T22:17:03.196Z,0.85
2023-02-27T22:20:08.814Z,0.90
2023-02-27T22:23:11.793Z,0.68
2023-02-27T22:26:16.609Z,0.80
2023-02-27T22:29:18.942Z,0.80
2023-02-27T22:32:21.336Z,0.90
2023-02-27T22:35:25.391Z,1.10
2023-02-27T22:38:29.030Z,0.60
2023-02-27T22:41:33.562Z,1.02
2023-02-27T22:44:35.880Z,0.70
2023-02-27T22:47:38.227Z,1.10
2023-02-27T22:50:41.935Z,0.85
2023-02-27T22:53:45.983Z,0.70
2023-02-27T22:56:49.885Z,0.80
2023-02-27T22:59:52.138Z,0.60
2023-02-27T23:02:54.410Z,0.80
2023-02-27T23:05:58.060Z,0.90
2023-02-27T23:09:01.400Z,0.80
2023-02-27T23:12:04.384Z,0.85
2023-02-27T23:15:08.238Z,0.90
2023-02-27T23:18:10.510Z,1.25
2023-02-27T23:21:14.979Z,1.13
2023-02-27T23:24:18.816Z,0.95
2023-02-27T23:27:26.240Z,1.00
2023-02-27T23:30:29.229Z,1.00
2023-02-27T23:33:31.726Z,0.75
2023-02-27T23:36:37.347Z,0.80
2023-02-27T23:39:39.645Z,0.75
2023-02-27T23:43:00.551Z,0.88
2023-02-27T23:46:06.797Z,1.17
2023-02-27T23:49:12.473Z,0.80
2023-02-27T23:52:16.041Z,0.63
2023-02-27T23:55:19.356Z,0.70
2023-02-27T23:58:21.601Z,0.80
